Time;durP1;ratioP1;P1;durP2;ratioP2;P2;SDS_P1;SDS_P2;PMS_P1;PMS_P2;Temp;Humidity;BMP_temperature;BMP_pressure;BME280_temperature;BME280_humidity;BME280_pressure;Samples;Min_cycle;Max_cycle;Signal;HPM_P1;HPM_P2
2023/04/09 00:03:15;;;;;;;51.78;30.98;;;;;;;7.84;100.00;102323.84;10360703;28;20073;-74
2023/04/09 00:08:16;;;;;;;46.63;30.90;;;;;;;7.82;100.00;102317.59;10358106;28;20125;-75
2023/04/09 00:13:17;;;;;;;41.35;29.25;;;;;;;7.76;100.00;102323.22;10360139;28;20829;-74
2023/04/09 00:18:17;;;;;;;48.80;32.75;;;;;;;7.73;100.00;102322.97;10356738;28;20104;-74
2023/04/09 00:23:18;;;;;;;49.97;30.90;;;;;;;7.71;100.00;102321.00;10359061;28;20053;-74
2023/04/09 00:28:18;;;;;;;51.30;31.33;;;;;;;7.63;100.00;102315.19;10360597;28;20072;-74
2023/04/09 00:33:19;;;;;;;53.70;29.05;;;;;;;7.40;100.00;102311.56;10356393;28;20133;-74
2023/04/09 00:38:21;;;;;;;42.88;28.15;;;;;;;7.15;100.00;102295.56;10358141;28;20133;-75
2023/04/09 00:43:21;;;;;;;47.20;30.75;;;;;;;6.94;100.00;102294.66;10373539;28;20048;-75
2023/04/09 00:48:22;;;;;;;48.97;32.17;;;;;;;6.76;100.00;102298.41;10352622;28;20120;-74
2023/04/09 00:53:22;;;;;;;49.17;31.38;;;;;;;6.85;100.00;102294.78;10348052;28;20062;-75
2023/04/09 00:58:23;;;;;;;45.33;29.02;;;;;;;6.69;100.00;102292.56;10373194;28;20094;-75
2023/04/09 01:03:23;;;;;;;45.55;29.83;;;;;;;6.37;100.00;102291.56;10377369;28;20038;-73
2023/04/09 01:09:18;;;;;;;52.10;31.80;;;;;;;6.22;100.00;102283.34;10303448;28;20137;-73
2023/04/09 01:14:25;;;;;;;49.58;31.80;;;;;;;6.00;100.00;102283.09;10295507;28;20088;-74
2023/04/09 01:19:33;;;;;;;45.63;31.08;;;;;;;5.65;100.00;102278.25;10363992;28;20038;-74
2023/04/09 01:24:46;;;;;;;51.75;34.45;;;;;;;5.41;100.00;102285.63;10377120;28;20077;-74
2023/04/09 01:29:47;;;;;;;45.70;33.50;;;;;;;5.14;100.00;102279.72;10392037;28;20148;-74
2023/04/09 01:34:48;;;;;;;48.90;32.28;;;;;;;4.91;100.00;102277.63;10381222;28;20114;-73
2023/04/09 01:39:48;;;;;;;52.33;31.88;;;;;;;4.75;100.00;102275.25;10345791;28;20076;-73
2023/04/09 01:44:49;;;;;;;54.10;33.50;;;;;;;4.53;100.00;102270.63;10358551;28;20210;-74
2023/04/09 01:49:49;;;;;;;56.45;35.45;;;;;;;4.48;100.00;102274.47;10354274;28;20100;-74
2023/04/09 01:54:50;;;;;;;60.60;38.30;;;;;;;4.48;100.00;102272.81;10364256;28;20180;-74
2023/04/09 01:59:50;;;;;;;51.60;36.15;;;;;;;4.47;100.00;102276.16;10363978;28;20077;-73
2023/04/09 02:04:51;;;;;;;58.42;35.28;;;;;;;4.52;100.00;102267.16;10368313;28;20128;-74
2023/04/09 02:09:52;;;;;;;56.75;36.45;;;;;;;4.55;100.00;102263.91;10386835;28;20122;-74
2023/04/09 02:14:52;;;;;;;64.18;38.28;;;;;;;4.49;100.00;102265.94;10395886;28;20104;-74
2023/04/09 02:19:53;;;;;;;60.80;36.75;;;;;;;4.24;100.00;102268.78;10383607;28;20069;-74
2023/04/09 02:24:53;;;;;;;54.50;40.15;;;;;;;4.09;100.00;102265.63;10371297;28;20197;-75
2023/04/09 02:29:53;;;;;;;56.78;38.28;;;;;;;3.95;100.00;102266.88;10365140;28;20460;-74
2023/04/09 02:34:54;;;;;;;57.47;39.50;;;;;;;3.70;100.00;102259.31;10365183;28;20054;-74
2023/04/09 02:39:54;;;;;;;56.47;38.70;;;;;;;3.47;100.00;102255.38;10365652;28;20117;-73
2023/04/09 02:44:55;;;;;;;65.40;42.28;;;;;;;3.35;100.00;102259.34;10347733;28;20125;-74
2023/04/09 02:49:55;;;;;;;59.92;37.80;;;;;;;3.37;100.00;102252.66;10364058;28;20108;-74
2023/04/09 02:54:56;;;;;;;60.83;44.55;;;;;;;3.38;100.00;102250.22;10365865;28;20108;-74
2023/04/09 02:59:56;;;;;;;65.15;43.60;;;;;;;3.37;100.00;102250.06;10385672;28;20068;-74
2023/04/09 03:04:57;;;;;;;62.50;39.85;;;;;;;3.32;100.00;102254.78;10370831;28;20068;-74
2023/04/09 03:09:58;;;;;;;70.35;45.20;;;;;;;3.22;100.00;102258.13;10347084;28;20540;-75
2023/04/09 03:14:59;;;;;;;69.78;43.83;;;;;;;3.16;100.00;102252.34;10395385;28;20119;-74
2023/04/09 03:20:00;;;;;;;69.18;44.10;;;;;;;3.08;100.00;102249.00;10371028;28;20096;-74
2023/04/09 03:25:00;;;;;;;77.45;44.17;;;;;;;3.05;100.00;102243.53;10366536;28;20499;-74
2023/04/09 03:30:02;;;;;;;66.82;45.42;;;;;;;3.04;100.00;102245.94;10357019;28;20045;-74
2023/04/09 03:35:02;;;;;;;75.97;48.20;;;;;;;2.96;100.00;102241.66;10380301;28;20061;-74
2023/04/09 03:40:03;;;;;;;75.40;46.70;;;;;;;3.01;100.00;102232.69;10378875;28;20045;-73
2023/04/09 03:45:04;;;;;;;74.35;49.55;;;;;;;3.00;100.00;102236.97;10345218;28;20041;-74
2023/04/09 03:50:05;;;;;;;79.00;47.55;;;;;;;3.08;100.00;102238.66;10325584;28;20046;-74
2023/04/09 03:55:07;;;;;;;78.53;50.17;;;;;;;3.23;100.00;102236.66;10397658;28;20117;-74
2023/04/09 04:00:08;;;;;;;59.30;37.00;;;;;;;3.34;100.00;102240.31;10382280;28;20049;-74
2023/04/09 04:05:08;;;;;;;90.40;52.77;;;;;;;3.50;100.00;102240.16;10385373;28;20125;-74
2023/04/09 04:10:09;;;;;;;91.70;50.00;;;;;;;3.45;100.00;102241.38;10375100;28;20077;-73
2023/04/09 04:15:10;;;;;;;74.82;47.20;;;;;;;3.38;100.00;102236.34;10377289;28;20054;-74
2023/04/09 04:20:11;;;;;;;70.82;46.42;;;;;;;3.44;100.00;102241.25;10396894;28;20045;-74
2023/04/09 04:25:11;;;;;;;93.40;56.78;;;;;;;3.57;100.00;102238.16;10366930;28;20042;-73
2023/04/09 04:30:12;;;;;;;85.10;54.20;;;;;;;3.72;100.00;102233.59;10385436;28;20200;-74
2023/04/09 04:35:12;;;;;;;82.70;47.53;;;;;;;3.71;100.00;102235.25;10361645;28;20129;-73
2023/04/09 04:40:13;;;;;;;76.88;46.53;;;;;;;3.67;100.00;102238.28;10395268;28;20045;-74
2023/04/09 04:45:13;;;;;;;73.22;46.60;;;;;;;3.53;100.00;102227.50;10386624;28;20175;-74
2023/04/09 04:50:14;;;;;;;72.47;46.13;;;;;;;3.35;100.00;102234.41;10396022;28;20069;-74
2023/04/09 04:55:14;;;;;;;73.85;49.65;;;;;;;3.18;100.00;102231.81;10393748;28;20548;-74
2023/04/09 05:00:15;;;;;;;75.22;46.03;;;;;;;3.03;100.00;102236.34;10376325;28;20045;-74
2023/04/09 05:05:15;;;;;;;85.93;49.15;;;;;;;2.95;100.00;102238.19;10366274;28;20042;-73
2023/04/09 05:10:16;;;;;;;76.00;46.45;;;;;;;2.83;100.00;102239.53;10400399;28;20120;-74
2023/04/09 05:15:16;;;;;;;83.45;52.25;;;;;;;2.86;100.00;102232.97;10366654;28;20041;-74
2023/04/09 05:20:17;;;;;;;79.50;49.97;;;;;;;2.82;100.00;102237.72;10380631;28;20052;-73
2023/04/09 05:25:17;;;;;;;80.35;49.33;;;;;;;2.85;100.00;102228.56;10378693;28;20370;-73
2023/04/09 05:30:18;;;;;;;63.85;40.35;;;;;;;2.90;100.00;102222.19;10364685;28;20092;-75
2023/04/09 05:35:19;;;;;;;81.28;53.15;;;;;;;3.03;100.00;102218.25;10347032;28;20045;-74
2023/04/09 05:40:19;;;;;;;87.07;52.72;;;;;;;3.32;100.00;102223.75;10367249;28;20041;-73
2023/04/09 05:45:27;;;;;;;97.03;55.05;;;;;;;3.52;100.00;102211.84;10366493;28;20042;-74
2023/04/09 05:50:29;;;;;;;80.20;49.65;;;;;;;3.84;100.00;102219.22;10368216;28;20030;-73
2023/04/09 05:55:31;;;;;;;80.97;48.45;;;;;;;4.67;100.00;102214.91;10365402;28;20034;-74
2023/04/09 06:00:31;;;;;;;71.82;46.38;;;;;;;5.16;100.00;102215.00;10325305;28;20034;-73
2023/04/09 06:05:32;;;;;;;69.75;40.90;;;;;;;5.35;100.00;102217.56;10350384;28;20068;-74
2023/04/09 06:10:35;;;;;;;63.20;40.78;;;;;;;5.96;100.00;102211.75;10392333;28;20125;-74
2023/04/09 06:15:39;;;;;;;50.03;31.25;;;;;;;7.44;100.00;102217.25;10401714;28;20076;-74
2023/04/09 06:20:42;;;;;;;46.35;28.30;;;;;;;8.32;100.00;102225.06;10349230;28;20069;-74
2023/04/09 06:25:43;;;;;;;40.13;27.27;;;;;;;9.47;100.00;102202.38;10351838;28;20057;-74
2023/04/09 06:30:43;;;;;;;39.97;25.85;;;;;;;10.40;100.00;102183.78;10363516;28;20042;-74
2023/04/09 06:35:44;;;;;;;32.50;23.88;;;;;;;11.23;100.00;102202.38;10351411;28;20162;-73
2023/04/09 06:40:45;;;;;;;31.60;22.23;;;;;;;11.66;100.00;102204.28;10373086;28;20129;-74
2023/04/09 06:45:46;;;;;;;35.25;24.20;;;;;;;11.98;100.00;102218.56;10348199;28;20053;-74
2023/04/09 06:50:47;;;;;;;35.10;22.52;;;;;;;11.50;100.00;102223.34;10371507;28;21914;-74
2023/04/09 06:55:50;;;;;;;33.55;23.85;;;;;;;11.46;100.00;102224.88;10362873;28;20088;-74
2023/04/09 07:00:52;;;;;;;33.45;24.38;;;;;;;12.64;100.00;102229.66;10353995;28;20366;-74
2023/04/09 07:05:53;;;;;;;31.48;21.83;;;;;;;13.75;100.00;102230.00;10389909;28;20030;-74
2023/04/09 07:10:54;;;;;;;36.15;23.92;;;;;;;14.19;100.00;102224.47;10358899;28;20084;-74
2023/04/09 07:15:54;;;;;;;31.65;22.05;;;;;;;14.44;100.00;102231.06;10342692;28;20370;-73
2023/04/09 07:20:55;;;;;;;34.88;23.50;;;;;;;14.94;100.00;102232.88;10390385;28;20040;-73
2023/04/09 07:25:56;;;;;;;35.65;23.40;;;;;;;14.74;96.70;102231.84;10375028;28;20040;-75
2023/04/09 07:30:56;;;;;;;29.08;21.50;;;;;;;14.63;97.67;102230.34;10369020;28;20033;-78
2023/04/09 07:35:57;;;;;;;38.90;26.80;;;;;;;15.22;98.04;102236.03;10401908;28;20079;-75
2023/04/09 07:40:57;;;;;;;29.63;21.70;;;;;;;15.75;88.66;102238.59;10341700;28;20029;-75
2023/04/09 07:45:58;;;;;;;27.33;20.23;;;;;;;16.15;87.70;102244.03;10354311;28;21441;-75
2023/04/09 07:50:58;;;;;;;31.30;20.10;;;;;;;16.84;82.50;102244.44;10351129;28;20494;-73
2023/04/09 07:55:59;;;;;;;39.90;28.40;;;;;;;15.46;83.96;102246.88;10361346;28;20120;-73
2023/04/09 08:00:59;;;;;;;51.25;38.45;;;;;;;14.16;89.67;102248.00;10356138;28;20042;-74
2023/04/09 08:06:00;;;;;;;23.73;16.67;;;;;;;14.59;94.74;102238.91;10341019;28;20067;-74
2023/04/09 08:11:00;;;;;;;26.23;17.55;;;;;;;15.23;85.81;102248.38;10352071;28;20119;-74
2023/04/09 08:16:01;;;;;;;20.17;17.15;;;;;;;15.47;92.35;102238.13;10361340;28;20553;-73
2023/04/09 08:21:03;;;;;;;21.52;15.57;;;;;;;16.34;82.37;102238.72;10368090;28;20116;-77
2023/04/09 08:26:04;;;;;;;18.27;13.50;;;;;;;16.93;76.36;102231.63;10345522;28;20092;-74
2023/04/09 08:31:05;;;;;;;18.23;13.73;;;;;;;17.80;73.22;102234.34;10380485;28;20128;-73
2023/04/09 08:36:10;;;;;;;21.73;13.67;;;;;;;19.11;66.13;102226.78;10359734;28;20052;-73
2023/04/09 08:41:19;;;;;;;18.67;14.18;;;;;;;18.38;65.65;102224.22;10349061;28;20092;-74
2023/04/09 08:46:19;;;;;;;21.67;14.93;;;;;;;18.69;67.06;102220.03;10395797;28;20046;-74
2023/04/09 08:51:21;;;;;;;18.03;11.93;;;;;;;20.10;60.74;102225.56;10354536;28;20110;-74
2023/04/09 08:56:22;;;;;;;16.05;11.88;;;;;;;19.09;59.14;102218.78;10332433;28;20077;-72
2023/04/09 09:01:23;;;;;;;16.75;10.63;;;;;;;18.53;61.16;102214.16;10358629;28;20397;-73
2023/04/09 09:06:28;;;;;;;19.50;13.07;;;;;;;19.01;59.61;102207.91;10366296;28;20046;-73
2023/04/09 09:11:29;;;;;;;14.82;10.15;;;;;;;21.07;59.34;102201.63;10337615;28;20285;-74
2023/04/09 09:16:31;;;;;;;14.00;10.70;;;;;;;21.74;55.89;102204.13;10346979;28;20038;-74
2023/04/09 09:21:33;;;;;;;15.13;11.73;;;;;;;21.04;51.17;102193.56;10356327;28;20038;-73
2023/04/09 09:26:33;;;;;;;15.63;10.60;;;;;;;21.06;52.44;102203.38;10367583;28;20391;-73
2023/04/09 09:31:34;;;;;;;14.57;11.43;;;;;;;21.51;52.17;102200.88;10335493;28;20058;-74
2023/04/09 09:36:34;;;;;;;17.63;10.57;;;;;;;21.36;50.99;102196.13;10350886;28;20045;-74
2023/04/09 09:41:35;;;;;;;12.77;10.03;;;;;;;22.56;48.31;102192.50;10365107;28;20041;-74
2023/04/09 09:46:38;;;;;;;14.83;9.63;;;;;;;21.52;46.86;102194.69;10363954;28;20033;-73
2023/04/09 09:51:38;;;;;;;16.58;11.30;;;;;;;21.59;47.57;102186.00;10329924;28;20035;-75
2023/04/09 09:56:41;;;;;;;17.47;11.57;;;;;;;20.97;47.52;102189.81;10331786;28;20061;-73
2023/04/09 10:01:43;;;;;;;16.23;11.75;;;;;;;16.98;55.39;102184.28;10371505;28;20462;-74
2023/04/09 10:06:44;;;;;;;14.47;10.97;;;;;;;18.79;58.13;102170.00;10334281;28;20054;-75
2023/04/09 10:11:46;;;;;;;15.73;11.27;;;;;;;19.98;53.88;102179.09;10357743;28;23087;-73
2023/04/09 10:16:47;;;;;;;16.55;10.90;;;;;;;21.29;49.72;102163.09;10358181;28;20042;-73
2023/04/09 10:21:56;;;;;;;15.93;10.30;;;;;;;21.04;46.06;102173.16;10374841;28;20038;-74
2023/04/09 10:27:01;;;;;;;13.70;8.20;;;;;;;19.60;54.47;102171.75;10363375;28;20509;-73
2023/04/09 10:32:04;;;;;;;14.77;9.45;;;;;;;20.30;52.61;102161.44;10362728;28;20092;-74
2023/04/09 10:37:09;;;;;;;12.57;9.38;;;;;;;20.74;50.62;102158.16;10327303;28;20061;-73
2023/04/09 10:42:14;;;;;;;13.00;8.52;;;;;;;22.00;47.16;102158.50;10328623;28;20041;-79
2023/04/09 10:47:31;;;;;;;11.13;7.60;;;;;;;22.95;44.93;102149.59;10343762;28;20042;-74
2023/04/09 10:52:33;;;;;;;10.38;8.45;;;;;;;23.89;42.09;102144.75;10357321;28;20050;-75
2023/04/09 10:57:34;;;;;;;11.02;8.13;;;;;;;22.58;43.35;102141.88;10363829;28;20034;-75
2023/04/09 11:02:37;;;;;;;8.70;5.60;;;;;;;21.15;44.41;102145.91;10369664;28;20057;-75
2023/04/09 11:07:40;;;;;;;10.32;6.22;;;;;;;21.90;44.77;102135.19;10361120;28;20124;-74
2023/04/09 11:12:41;;;;;;;10.98;7.15;;;;;;;22.49;41.50;102131.03;10360141;28;20034;-75
2023/04/09 11:17:42;;;;;;;10.18;7.43;;;;;;;19.52;46.69;102137.00;10357115;28;20037;-74
2023/04/09 11:22:43;;;;;;;9.55;6.05;;;;;;;17.52;49.08;102138.84;10378608;28;20049;-74
2023/04/09 11:27:43;;;;;;;11.30;6.70;;;;;;;16.20;52.54;102125.41;10356460;28;20489;-74
2023/04/09 11:32:44;;;;;;;9.50;6.40;;;;;;;17.14;54.20;102123.25;10337491;28;20043;-73
2023/04/09 11:37:45;;;;;;;12.00;6.90;;;;;;;15.85;53.83;102127.34;10304291;28;20126;-73
2023/04/09 11:42:47;;;;;;;10.23;6.25;;;;;;;16.11;59.22;102125.00;10321355;28;20386;-73
2023/04/09 11:47:48;;;;;;;10.43;6.30;;;;;;;16.94;57.08;102119.72;10347549;28;20042;-74
2023/04/09 11:52:49;;;;;;;8.05;5.85;;;;;;;16.58;56.48;102118.25;10361530;28;20034;-74
2023/04/09 11:57:51;;;;;;;8.13;5.50;;;;;;;18.91;52.29;102110.25;10362034;28;20064;-75
2023/04/09 12:03:01;;;;;;;10.63;7.15;;;;;;;20.92;47.85;102104.56;10360668;28;20561;-75
2023/04/09 12:08:03;;;;;;;11.07;6.80;;;;;;;20.42;45.97;102109.47;10345215;28;20048;-74
2023/04/09 12:13:09;;;;;;;;;;;;;;;21.29;46.35;102111.63;10359862;28;20504;-74
2023/04/09 12:18:10;;;;;;;8.35;4.93;;;;;;;19.86;45.56;102113.22;10381979;28;19921;-74
2023/04/09 12:23:11;;;;;;;9.00;6.63;;;;;;;17.60;51.15;102108.28;10360845;28;20510;-74
2023/04/09 12:28:15;;;;;;;8.48;6.15;;;;;;;20.94;44.30;102105.50;10392591;28;20046;-74
2023/04/09 12:33:15;;;;;;;9.23;4.75;;;;;;;20.70;46.22;102100.44;10343704;28;20046;-75
2023/04/09 12:38:16;;;;;;;9.63;6.13;;;;;;;21.38;42.34;102086.09;10341928;28;20052;-74
2023/04/09 12:43:16;;;;;;;8.53;5.10;;;;;;;21.17;41.96;102093.59;10359201;28;20117;-74
2023/04/09 12:48:16;;;;;;;7.43;4.60;;;;;;;19.88;42.57;102096.44;10360190;28;20065;-75
2023/04/09 12:53:17;;;;;;;6.43;4.55;;;;;;;19.92;46.39;102093.06;10375874;28;20406;-74
2023/04/09 12:58:18;;;;;;;6.57;4.35;;;;;;;18.05;49.15;102096.75;10390974;28;20042;-75
2023/04/09 13:03:18;;;;;;;7.53;4.90;;;;;;;17.99;50.14;102096.50;10359488;28;20038;-74
2023/04/09 13:08:19;;;;;;;9.25;5.00;;;;;;;19.54;44.79;102087.50;10376703;28;20026;-74
2023/04/09 13:13:20;;;;;;;10.68;4.25;;;;;;;18.79;44.04;102089.56;10358155;28;20085;-74
2023/04/09 13:18:20;;;;;;;7.73;4.17;;;;;;;17.03;46.40;102090.16;10361106;28;20038;-74
2023/04/09 13:23:21;;;;;;;8.05;5.53;;;;;;;18.30;45.89;102084.38;10358543;28;20437;-74
2023/04/09 13:28:21;;;;;;;7.85;4.88;;;;;;;19.19;47.59;102079.34;10361056;28;20064;-74
2023/04/09 13:33:22;;;;;;;7.15;4.78;;;;;;;18.01;46.31;102072.72;10359043;28;20129;-74
2023/04/09 13:38:22;;;;;;;8.15;4.85;;;;;;;18.90;45.02;102063.38;10359647;28;20087;-74
2023/04/09 13:43:26;;;;;;;9.07;4.75;;;;;;;20.66;43.82;102059.56;10359959;28;20084;-74
2023/04/09 13:48:27;;;;;;;8.40;6.03;;;;;;;19.49;45.01;102059.91;10358597;28;20030;-74
2023/04/09 13:53:27;;;;;;;8.50;5.35;;;;;;;20.69;43.78;102043.69;10358603;28;20120;-75
2023/04/09 13:58:28;;;;;;;7.90;5.03;;;;;;;20.85;41.78;102041.44;10358890;28;20117;-74
2023/04/09 14:03:28;;;;;;;7.88;5.22;;;;;;;19.45;42.88;102048.31;10366538;28;20092;-75
2023/04/09 14:08:29;;;;;;;7.35;4.05;;;;;;;20.52;44.43;102045.91;10366132;28;20062;-74
2023/04/09 14:13:29;;;;;;;5.30;4.20;;;;;;;21.61;41.42;102037.75;10381971;28;20049;-77
2023/04/09 14:18:30;;;;;;;7.77;5.73;;;;;;;21.17;39.30;102035.97;10368108;28;20274;-75
2023/04/09 14:23:30;;;;;;;7.23;5.50;;;;;;;20.68;41.58;102038.31;10382455;28;20072;-74
2023/04/09 14:28:32;;;;;;;7.93;5.43;;;;;;;21.57;40.64;102030.56;10366523;28;20450;-75
2023/04/09 14:33:32;;;;;;;8.20;5.13;;;;;;;22.42;38.55;102023.28;10348428;28;20041;-75
2023/04/09 14:38:33;;;;;;;7.60;4.53;;;;;;;21.77;40.34;102023.03;10348217;28;20641;-74
2023/04/09 14:43:34;;;;;;;8.23;4.87;;;;;;;21.68;40.46;102005.09;10366869;28;20038;-74
2023/04/09 14:48:34;;;;;;;7.63;4.47;;;;;;;21.40;38.68;102004.50;10365945;28;20057;-75
2023/04/09 14:53:35;;;;;;;7.40;4.50;;;;;;;20.41;39.43;102010.19;10348820;28;20482;-74
2023/04/09 14:58:36;;;;;;;5.67;4.10;;;;;;;19.49;39.92;101998.84;10363948;28;20096;-75
2023/04/09 15:03:36;;;;;;;6.75;4.53;;;;;;;20.45;42.97;102005.84;10366260;28;20465;-75
2023/04/09 15:08:37;;;;;;;6.93;5.03;;;;;;;20.11;42.90;102003.22;10364059;28;20196;-74
2023/04/09 15:13:37;;;;;;;7.33;3.93;;;;;;;20.24;40.44;102001.78;10362254;28;20034;-75
2023/04/09 15:18:38;;;;;;;8.48;5.50;;;;;;;19.52;40.93;101988.31;10363437;28;20077;-75
2023/04/09 15:23:38;;;;;;;8.43;4.55;;;;;;;19.02;44.62;102001.88;10364716;28;20117;-74
2023/04/09 15:28:39;;;;;;;7.30;5.28;;;;;;;19.25;43.32;101994.59;10365243;28;20375;-74
2023/04/09 15:33:41;;;;;;;7.07;4.87;;;;;;;19.19;43.80;101981.16;10362726;28;20041;-75
2023/04/09 15:38:41;;;;;;;7.60;4.18;;;;;;;18.54;45.05;101979.13;10346271;28;20096;-74
2023/04/09 15:43:42;;;;;;;7.35;4.53;;;;;;;17.91;45.56;101981.44;10365039;28;20116;-74
2023/04/09 15:48:43;;;;;;;6.72;4.35;;;;;;;17.71;47.96;101967.47;10362105;28;20482;-74
2023/04/09 15:53:43;;;;;;;6.78;4.55;;;;;;;16.88;47.08;101964.41;10361618;28;20121;-75
2023/04/09 15:58:44;;;;;;;6.88;4.50;;;;;;;16.23;49.89;101961.78;10378751;28;20053;-74
2023/04/09 16:03:50;;;;;;;9.40;5.82;;;;;;;15.85;52.11;101951.34;10362180;28;20049;-74
2023/04/09 16:08:51;;;;;;;7.07;4.38;;;;;;;15.20;52.39;101948.50;10362930;28;20045;-74
2023/04/09 16:13:51;;;;;;;9.80;6.25;;;;;;;14.70;54.98;101947.00;10361348;28;20068;-74
2023/04/09 16:18:52;;;;;;;9.50;4.90;;;;;;;14.46;58.16;101959.06;10363399;28;20103;-74
2023/04/09 16:23:52;;;;;;;6.35;3.58;;;;;;;14.38;57.85;101957.78;10360504;28;20359;-74
2023/04/09 16:28:52;;;;;;;7.97;3.85;;;;;;;14.18;55.13;101959.38;10344004;28;20046;-74
2023/04/09 16:33:53;;;;;;;5.60;3.22;;;;;;;13.90;58.47;101950.09;10362055;28;20068;-74
2023/04/09 16:38:54;;;;;;;7.82;4.85;;;;;;;13.84;59.42;101948.06;10372119;28;20500;-73
2023/04/09 16:43:54;;;;;;;6.50;4.70;;;;;;;13.72;59.12;101955.31;10377372;28;20033;-75
2023/04/09 16:48:55;;;;;;;5.50;3.53;;;;;;;13.62;62.65;101957.47;10370487;28;20519;-76
2023/04/09 16:53:55;;;;;;;8.02;4.15;;;;;;;13.44;59.24;101954.75;10342530;28;20064;-74
2023/04/09 16:58:56;;;;;;;7.10;4.57;;;;;;;13.25;60.77;101958.09;10365619;28;20466;-74
2023/04/09 17:03:58;;;;;;;10.38;4.72;;;;;;;13.06;62.54;101946.59;10360470;28;20049;-75
2023/04/09 17:08:58;;;;;;;;;;;;;;;12.88;63.60;101953.47;10339103;28;20481;-75
2023/04/09 17:13:59;;;;;;;7.15;3.88;;;;;;;12.72;63.06;101947.34;10357650;28;19975;-77
2023/04/09 17:18:59;;;;;;;5.30;3.47;;;;;;;12.46;66.69;101951.09;10357197;28;20048;-74
2023/04/09 17:24:01;;;;;;;6.03;3.20;;;;;;;12.19;71.26;101943.44;10358996;28;20165;-74
2023/04/09 17:29:02;;;;;;;6.75;4.20;;;;;;;12.06;68.57;101947.09;10357217;28;20108;-74
2023/04/09 17:34:03;;;;;;;7.00;3.95;;;;;;;12.03;71.79;101942.53;10360734;28;20188;-75
2023/04/09 17:39:03;;;;;;;6.13;3.67;;;;;;;11.84;72.14;101944.84;10366702;28;20053;-76
2023/04/09 17:44:03;;;;;;;6.55;3.60;;;;;;;11.71;74.47;101930.13;10365249;28;20217;-75
2023/04/09 17:49:04;;;;;;;7.57;3.97;;;;;;;11.35;78.08;101935.81;10369139;28;20041;-74
2023/04/09 17:54:05;;;;;;;13.45;5.72;;;;;;;11.31;77.93;101947.84;10365739;28;20121;-75
2023/04/09 17:59:06;;;;;;;5.82;3.28;;;;;;;11.03;81.04;101950.44;10367614;28;20069;-75
2023/04/09 18:04:06;;;;;;;7.60;3.47;;;;;;;10.78;85.19;101951.50;10376462;28;20094;-77
2023/04/09 18:09:07;;;;;;;4.40;2.53;;;;;;;10.34;88.91;101947.78;10373010;28;20095;-76
2023/04/09 18:14:08;;;;;;;8.30;3.47;;;;;;;9.79;99.59;101951.13;10427444;28;20132;-75
2023/04/09 18:19:10;;;;;;;6.57;2.83;;;;;;;9.59;100.00;101954.97;10384226;28;20036;-76
2023/04/09 18:24:11;;;;;;;7.82;3.30;;;;;;;9.27;100.00;101951.03;10372417;28;20043;-73
2023/04/09 18:29:11;;;;;;;7.40;3.55;;;;;;;8.96;100.00;101957.59;10355788;28;20047;-74
2023/04/09 18:34:12;;;;;;;7.40;2.85;;;;;;;8.79;100.00;101961.59;10323600;28;20514;-74
2023/04/09 18:39:12;;;;;;;9.20;3.65;;;;;;;8.73;100.00;101965.47;10332058;28;20058;-76
2023/04/09 18:44:13;;;;;;;8.82;3.78;;;;;;;8.45;100.00;101966.03;10324608;28;20053;-73
2023/04/09 18:49:14;;;;;;;6.93;3.40;;;;;;;8.05;100.00;101964.88;10326484;28;20046;-76
2023/04/09 18:54:15;;;;;;;5.70;3.17;;;;;;;7.79;100.00;101966.41;10323318;28;20118;-74
2023/04/09 18:59:15;;;;;;;8.60;3.42;;;;;;;7.63;100.00;101966.00;10331350;28;20066;-74
2023/04/09 19:04:16;;;;;;;7.25;3.72;;;;;;;7.49;100.00;101968.47;10325251;28;20129;-75
2023/04/09 19:09:16;;;;;;;6.00;3.45;;;;;;;7.20;100.00;101973.97;10353898;28;20138;-74
2023/04/09 19:14:17;;;;;;;8.15;3.95;;;;;;;7.02;100.00;101981.25;10338630;28;20034;-74
2023/04/09 19:19:17;;;;;;;8.65;3.53;;;;;;;6.84;100.00;101976.38;10327136;28;20026;-74
2023/04/09 19:24:18;;;;;;;8.82;4.10;;;;;;;6.68;100.00;101973.31;10320646;28;20188;-74
2023/04/09 19:29:18;;;;;;;9.73;4.80;;;;;;;6.59;100.00;101978.66;10379781;28;20120;-74
2023/04/09 19:34:19;;;;;;;9.13;4.57;;;;;;;6.45;100.00;101974.97;10356291;28;20038;-75
2023/04/09 19:39:19;;;;;;;8.65;4.53;;;;;;;6.46;100.00;101971.56;10328437;28;20049;-73
2023/04/09 19:44:20;;;;;;;6.43;4.60;;;;;;;6.30;100.00;101979.78;10331003;28;20047;-73
2023/04/09 19:49:21;;;;;;;9.35;5.13;;;;;;;6.15;100.00;101984.63;10330543;28;20498;-74
2023/04/09 19:54:21;;;;;;;6.30;4.22;;;;;;;6.05;100.00;101982.94;10360524;28;20099;-73
2023/04/09 19:59:22;;;;;;;10.18;5.13;;;;;;;5.96;100.00;101976.94;10321578;28;20111;-74
2023/04/09 20:04:23;;;;;;;9.63;4.65;;;;;;;5.84;100.00;101967.31;10361067;28;20485;-74
2023/04/09 20:09:26;;;;;;;12.70;5.40;;;;;;;6.00;100.00;101963.41;10360229;28;20096;-73
2023/04/09 20:14:26;;;;;;;9.68;5.90;;;;;;;5.90;100.00;101960.81;10358635;28;20288;-74
2023/04/09 20:19:27;;;;;;;10.07;4.88;;;;;;;5.84;100.00;101959.53;10374059;28;20126;-74
2023/04/09 20:24:27;;;;;;;8.13;5.13;;;;;;;5.77;100.00;101956.31;10362817;28;20123;-73
2023/04/09 20:29:28;;;;;;;12.57;6.60;;;;;;;5.78;100.00;101953.81;10360134;28;20121;-74
2023/04/09 20:34:29;;;;;;;11.65;6.03;;;;;;;5.82;100.00;101953.28;10362065;28;20034;-73
2023/04/09 20:39:30;;;;;;;11.95;5.53;;;;;;;5.84;100.00;101949.13;10361126;28;20041;-73
2023/04/09 20:44:30;;;;;;;8.20;4.78;;;;;;;5.83;100.00;101949.91;10361401;28;20121;-73
2023/04/09 20:49:31;;;;;;;8.98;5.82;;;;;;;5.88;100.00;101945.13;10359435;28;20486;-74
2023/04/09 20:54:31;;;;;;;10.75;5.88;;;;;;;6.05;100.00;101937.88;10361239;28;20454;-74
2023/04/09 20:59:32;;;;;;;7.60;4.82;;;;;;;6.02;100.00;101935.91;10360461;28;20058;-74
2023/04/09 21:04:33;;;;;;;8.98;4.97;;;;;;;6.04;100.00;101933.44;10361058;28;20536;-74
2023/04/09 21:09:33;;;;;;;8.50;3.90;;;;;;;6.09;100.00;101925.22;10359313;28;20116;-74
2023/04/09 21:14:34;;;;;;;9.55;4.60;;;;;;;6.09;100.00;101922.63;10359095;28;20128;-75
2023/04/09 21:19:34;;;;;;;9.15;5.47;;;;;;;5.95;100.00;101924.06;10361710;28;20070;-76
2023/04/09 21:24:35;;;;;;;6.93;4.07;;;;;;;5.96;100.00;101928.47;10359188;28;20058;-77
2023/04/09 21:29:36;;;;;;;11.35;6.55;;;;;;;6.07;100.00;101932.00;10359253;28;20034;-76
2023/04/09 21:34:38;;;;;;;13.20;5.43;;;;;;;6.04;100.00;101926.53;10359710;28;20129;-74
2023/04/09 21:39:38;;;;;;;;;;;;;;;6.19;100.00;101932.13;10342926;28;20053;-73
2023/04/09 21:44:39;;;;;;;7.85;5.35;;;;;;;6.27;100.00;101927.53;10360693;28;19922;-74
2023/04/09 21:49:39;;;;;;;9.30;5.45;;;;;;;6.22;100.00;101931.44;10358579;28;20494;-74
2023/04/09 21:54:40;;;;;;;11.10;5.68;;;;;;;6.13;100.00;101935.09;10358491;28;20462;-74
2023/04/09 21:59:42;;;;;;;12.13;7.33;;;;;;;6.04;100.00;101946.44;10358782;28;20045;-74
2023/04/09 22:04:42;;;;;;;8.97;5.57;;;;;;;5.91;100.00;101949.66;10357414;28;20045;-74
2023/04/09 22:09:43;;;;;;;10.02;5.38;;;;;;;5.75;100.00;101948.38;10359317;28;20076;-75
2023/04/09 22:14:44;;;;;;;8.98;5.03;;;;;;;5.61;100.00;101955.00;10342040;28;20073;-74
2023/04/09 22:19:45;;;;;;;11.80;6.28;;;;;;;5.72;100.00;101962.00;10392201;28;20056;-74
2023/04/09 22:24:45;;;;;;;10.50;6.20;;;;;;;5.57;100.00;101964.19;10365390;28;20034;-74
2023/04/09 22:29:46;;;;;;;11.20;5.63;;;;;;;5.46;100.00;101966.66;10365485;28;20095;-74
2023/04/09 22:34:46;;;;;;;10.55;5.90;;;;;;;5.36;100.00;101967.56;10398134;28;20042;-74
2023/04/09 22:39:47;;;;;;;9.73;5.50;;;;;;;5.55;100.00;101964.88;10363721;28;20061;-76
2023/04/09 22:44:48;;;;;;;28.77;7.18;;;;;;;5.53;100.00;101963.81;10365217;28;20454;-73
2023/04/09 22:49:51;;;;;;;10.65;5.75;;;;;;;5.59;100.00;101965.25;10364222;28;20588;-73